Alanson, MI (49706)

8:54 PM EDT on August 31, 2015 (GMT -0400)
Crooked Lake | | Change Station
CLOSE
Current Station
Personal Weather Station
Location: Petoskey, MI
Elevation: 584 ft
Nearby Weather Stations

Elev 584 ft 45.41 °N, 84.82 °W | Updated 17 minutes ago

Clear
Clear
70.5 °F
Feels Like 70.5 °F
N
2.2
Wind Variable Wind from SW

Today
High -- | Low -- °F
--% Chance of Precip.
Yesterday
High -- | Low -- °F
Precip. -- in
6:59 AM 8:19 PM
Waning Gibbous, 92% visible
Pressure 30.01 in
Visibility 10.0 miles
Clouds Clear
Dew Point 68 °F
Humidity 93%
Rainfall 0.00 in
Snow Depth Not available.
UV 0 out of 12
Pollen 10.50 out of 12
Air Quality Not available.
Flu Activity Not available.
METAR KMGN 010035Z AUTO 00000KT 10SM CLR 20/18 A3001 RMK AO2 T01990185
Pressure 30.01 in
Visibility 10.0 miles
Clouds Clear
Dew Point 68 °F
Humidity 93%
Rainfall 0.00 in
Snow Depth Not available.
UV 0 out of 12
Pollen 10.50 out of 12
Air Quality Not available.
Flu Activity Not available.
METAR KMGN 010035Z AUTO 00000KT 10SM CLR 20/18 A3001 RMK AO2 T01990185
Nowcast | as of 8:00 PM EDT on August 31, 2015

At 9 PM...mostly clear. Temperature 70. Light winds. At 11 PM...mostly clear. Temperature 67. Light winds. At 1 am...mostly clear. Areas of fog. Temperature 65. Light winds. At 3 am...mostly clear. Areas of fog. Temperature 65. Light winds.

×

10-Day Weather Forecast

×

Almanac

Astronomy

Aug. 31, 2015 Rise Set
Actual Time
Civil Twilight
Nautical Twilight
Astronomical Twilight
Moon
Length of Visible Light
Length of Day
Tomorrow will be .
, % of the Moon is Illuminated

Today's Extremes

State Highs State Lows

Community

WunderPhotos

Upload Photos

1,851,411 photos uploaded!

WunderBlogs® & News

Nearby

Air Quality

  Air Quality AQ Index Pollutant
Not available.

Snow Depth

Station Depth Elevation

Earthquake Activity

City Distance Mag. Time & Date
Minimum magnitude displayed is 2.5.

Coastal Water Temperatures

Place Temperature

Stations

Nearby Weather Stations

Station Location Temp. Windchill Dew Point Humidity Wind Precip. Elev Updated Type